Stolt Effort — ZCSP6 — position and weather

sailwx.info

Track history (hours):
 
Tides and Currents Weather Stations Pressure Air Temp Water Temp Dewpoint Dewpoint Depression Visibility Wind Speed Wind Dir Waves Ship Positions

Stolt Effort

Last reported at 2017-May-06 04:21 UTC. Time now 2017-May-30 05:33 UTC.
Position N 29°18' W 094°38'.
Warning: this ship's position is 24 days out of date.

Length 176 m; draft 8.4 m.

Type: Ship. MMSI: 319445000.

Date/timePositionNaut miles runAvg speedWind from/ knotsBaromVisibWave heightAir tempDewpointWater temp
2017-May-06 04:21N 29°18' W 094°38'613.0
2017-May-06 03:54N 29°21' W 094°44'512.8
2017-May-06 03:30N 29°23' W 094°49'713.7
2017-May-06 03:00N 29°30' W 094°52'612.9
2017-May-06 02:30N 29°35' W 094°56'611.7
2017-May-06 02:00N 29°41' W 094°59'4 8.7
2017-May-06 01:30N 29°44' W 095°02'4 7.1
2017-May-06 01:00N 29°45' W 095°06'1 0.0
2017-May-05 08:59N 29°45' W 095°06'0 0.9
2017-May-05 08:30N 29°45' W 095°06'3 5.2
2017-May-05 08:00N 29°44' W 095°09'1 0.1
2017-May-04 20:43N 29°45' W 095°10'0 0.0
2017-May-04 20:31N 29°45' W 095°10'0 0.4
2017-May-04 20:00N 29°45' W 095°10'2 3.9
2017-May-04 19:30N 29°44' W 095°08'2 0.1
2017-May-03 13:12N 29°45' W 095°10'0 1.9
2017-May-03 13:00N 29°45' W 095°10'3 5.8
2017-May-03 12:27N 29°45' W 095°06'2 4.6
2017-May-03 12:00N 29°45' W 095°04'  
2017-Apr-28 18:45N 29°44' W 095°08'0 0.0
2017-Apr-28 18:30N 29°44' W 095°08'0 0.0
2017-Apr-28 18:00N 29°44' W 095°08'2 2.6
2017-Apr-28 17:26N 29°45' W 095°06'2 5.6
2017-Apr-28 17:01N 29°44' W 095°03'3 7.0
2017-Apr-28 16:30N 29°42' W 095°00'611.1
2017-Apr-28 16:00N 29°37' W 094°57'713.1
2017-Apr-28 15:30N 29°32' W 094°53'41 2.2
2017-Apr-27 20:40N 28°58' W 094°27'213.0
2017-Apr-27 20:30N 28°57' W 094°25'713.0
2017-Apr-27 19:57N 28°55' W 094°17'613.2
2017-Apr-27 19:28N 28°53' W 094°10'3212.7
2017-Apr-27 16:57N 28°41' W 093°36'193 6.2
2017-Apr-26 09:43N 29°58' W 090°14'314.2
2017-Apr-26 09:30N 29°58' W 090°17'  
Track history (hours):
 
Tides and Currents Weather Stations Pressure Air Temp Water Temp Dewpoint Dewpoint Depression Visibility Wind Speed Wind Dir Waves Ship Positions

Stolt Effort

Last reported at 2017-May-06 04:21 UTC. Time now 2017-May-30 05:33 UTC.
Position N 29°18' W 094°38'.
Warning: this ship's position is 24 days out of date.

Length 176 m; draft 8.4 m.

Type: Ship. MMSI: 319445000.

Date/timePositionNaut miles runAvg speedWind from/ knotsBaromVisibWave heightAir tempDewpointWater temp
2017-May-06 04:21N 29°18' W 094°38'613.0
2017-May-06 03:54N 29°21' W 094°44'512.8
2017-May-06 03:30N 29°23' W 094°49'713.7
2017-May-06 03:00N 29°30' W 094°52'612.9
2017-May-06 02:30N 29°35' W 094°56'611.7
2017-May-06 02:00N 29°41' W 094°59'4 8.7
2017-May-06 01:30N 29°44' W 095°02'4 7.1
2017-May-06 01:00N 29°45' W 095°06'1 0.0
2017-May-05 08:59N 29°45' W 095°06'0 0.9
2017-May-05 08:30N 29°45' W 095°06'3 5.2
2017-May-05 08:00N 29°44' W 095°09'1 0.1
2017-May-04 20:43N 29°45' W 095°10'0 0.0
2017-May-04 20:31N 29°45' W 095°10'0 0.4
2017-May-04 20:00N 29°45' W 095°10'2 3.9
2017-May-04 19:30N 29°44' W 095°08'2 0.1
2017-May-03 13:12N 29°45' W 095°10'0 1.9
2017-May-03 13:00N 29°45' W 095°10'3 5.8
2017-May-03 12:27N 29°45' W 095°06'2 4.6
2017-May-03 12:00N 29°45' W 095°04'  
2017-Apr-28 18:45N 29°44' W 095°08'0 0.0
2017-Apr-28 18:30N 29°44' W 095°08'0 0.0
2017-Apr-28 18:00N 29°44' W 095°08'2 2.6
2017-Apr-28 17:26N 29°45' W 095°06'2 5.6
2017-Apr-28 17:01N 29°44' W 095°03'3 7.0
2017-Apr-28 16:30N 29°42' W 095°00'611.1
2017-Apr-28 16:00N 29°37' W 094°57'713.1
2017-Apr-28 15:30N 29°32' W 094°53'41 2.2
2017-Apr-27 20:40N 28°58' W 094°27'213.0
2017-Apr-27 20:30N 28°57' W 094°25'713.0
2017-Apr-27 19:57N 28°55' W 094°17'613.2
2017-Apr-27 19:28N 28°53' W 094°10'3212.7
2017-Apr-27 16:57N 28°41' W 093°36'193 6.2
2017-Apr-26 09:43N 29°58' W 090°14'314.2
2017-Apr-26 09:30N 29°58' W 090°17'  

Dump ship's entire track history